sensor_id;sensor_type;location;lat;lon;timestamp;temperature;humidity
15698;DHT22;7949;48.726;9.102;2022-08-25T17:52:46;29.20;81.80
15698;DHT22;7949;48.726;9.102;2022-08-25T17:55:13;28.50;83.20
15698;DHT22;7949;48.726;9.102;2022-08-25T17:57:39;28.20;84.80
15698;DHT22;7949;48.726;9.102;2022-08-25T18:00:07;27.90;83.90
15698;DHT22;7949;48.726;9.102;2022-08-25T18:02:36;27.70;84.80
15698;DHT22;7949;48.726;9.102;2022-08-25T18:05:04;27.40;85.10
15698;DHT22;7949;48.726;9.102;2022-08-25T18:07:31;27.30;87.10
15698;DHT22;7949;48.726;9.102;2022-08-25T18:09:59;27.10;86.70
15698;DHT22;7949;48.726;9.102;2022-08-25T18:12:26;26.90;87.80
15698;DHT22;7949;48.726;9.102;2022-08-25T18:14:53;26.70;88.20
15698;DHT22;7949;48.726;9.102;2022-08-25T18:17:20;26.60;89.80
15698;DHT22;7949;48.726;9.102;2022-08-25T18:19:47;26.50;89.40
15698;DHT22;7949;48.726;9.102;2022-08-25T18:22:14;26.40;90.20
15698;DHT22;7949;48.726;9.102;2022-08-25T18:24:41;26.20;93.20
15698;DHT22;7949;48.726;9.102;2022-08-25T18:27:10;26.10;93.30
15698;DHT22;7949;48.726;9.102;2022-08-25T18:29:38;25.90;93.10
15698;DHT22;7949;48.726;9.102;2022-08-25T18:32:05;25.80;94.60
15698;DHT22;7949;48.726;9.102;2022-08-25T18:34:32;25.60;95.20
15698;DHT22;7949;48.726;9.102;2022-08-25T18:36:59;25.50;95.10
15698;DHT22;7949;48.726;9.102;2022-08-25T18:39:46;25.30;96.00
15698;DHT22;7949;48.726;9.102;2022-08-25T18:42:32;25.20;96.00
15698;DHT22;7949;48.726;9.102;2022-08-25T18:45:00;25.00;96.10
15698;DHT22;7949;48.726;9.102;2022-08-25T18:47:27;24.80;96.50
15698;DHT22;7949;48.726;9.102;2022-08-25T18:49:54;24.60;96.80
15698;DHT22;7949;48.726;9.102;2022-08-25T18:52:21;24.50;98.20
15698;DHT22;7949;48.726;9.102;2022-08-25T18:54:48;24.30;98.60
15698;DHT22;7949;48.726;9.102;2022-08-25T18:57:15;24.10;99.60
15698;DHT22;7949;48.726;9.102;2022-08-25T18:59:43;23.90;99.90
15698;DHT22;7949;48.726;9.102;2022-08-25T19:02:10;23.80;99.90
15698;DHT22;7949;48.726;9.102;2022-08-25T19:04:37;23.60;99.90
15698;DHT22;7949;48.726;9.102;2022-08-25T19:07:04;23.50;99.90
15698;DHT22;7949;48.726;9.102;2022-08-25T19:09:34;23.30;99.90
15698;DHT22;7949;48.726;9.102;2022-08-25T19:12:02;23.20;99.90
15698;DHT22;7949;48.726;9.102;2022-08-25T19:14:29;23.10;99.90
15698;DHT22;7949;48.726;9.102;2022-08-25T19:16:57;23.00;99.90
15698;DHT22;7949;48.726;9.102;2022-08-25T19:19:24;22.80;99.90
15698;DHT22;7949;48.726;9.102;2022-08-25T19:21:51;22.70;99.90
15698;DHT22;7949;48.726;9.102;2022-08-25T19:24:18;22.60;99.90
15698;DHT22;7949;48.726;9.102;2022-08-25T19:26:46;22.50;99.90
15698;DHT22;7949;48.726;9.102;2022-08-25T19:29:15;22.40;99.90
15698;DHT22;7949;48.726;9.102;2022-08-25T19:31:44;22.30;99.90
15698;DHT22;7949;48.726;9.102;2022-08-25T19:34:15;22.10;99.90
15698;DHT22;7949;48.726;9.102;2022-08-25T19:36:44;22.00;99.90
15698;DHT22;7949;48.726;9.102;2022-08-25T19:39:13;22.00;99.90
